sensor_id;sensor_type;location;lat;lon;timestamp;P1;durP1;ratioP1;P2;durP2;ratioP2
74191;SDS011;62551;51.180;4.366;2022-08-25T00:00:40;5.45;;;3.97;;
74191;SDS011;62551;51.180;4.366;2022-08-25T00:03:08;4.65;;;3.75;;
74191;SDS011;62551;51.180;4.366;2022-08-25T00:05:35;5.13;;;3.47;;
74191;SDS011;62551;51.180;4.366;2022-08-25T00:08:02;5.43;;;3.60;;
74191;SDS011;62551;51.180;4.366;2022-08-25T00:10:30;5.13;;;3.60;;
74191;SDS011;62551;51.180;4.366;2022-08-25T00:12:59;5.43;;;3.72;;
74191;SDS011;62551;51.180;4.366;2022-08-25T00:15:27;4.15;;;3.38;;
74191;SDS011;62551;51.180;4.366;2022-08-25T00:17:57;5.70;;;4.30;;
74191;SDS011;62551;51.180;4.366;2022-08-25T00:20:25;7.50;;;4.15;;
74191;SDS011;62551;51.180;4.366;2022-08-25T00:22:52;8.05;;;4.05;;
74191;SDS011;62551;51.180;4.366;2022-08-25T00:25:20;5.63;;;4.32;;
74191;SDS011;62551;51.180;4.366;2022-08-25T00:27:48;4.57;;;3.92;;
74191;SDS011;62551;51.180;4.366;2022-08-25T00:30:16;7.35;;;4.70;;
74191;SDS011;62551;51.180;4.366;2022-08-25T00:32:43;4.75;;;3.85;;
74191;SDS011;62551;51.180;4.366;2022-08-25T00:35:12;4.57;;;3.88;;
74191;SDS011;62551;51.180;4.366;2022-08-25T00:37:40;5.20;;;4.00;;
74191;SDS011;62551;51.180;4.366;2022-08-25T00:40:07;6.05;;;4.43;;
74191;SDS011;62551;51.180;4.366;2022-08-25T00:42:34;4.93;;;3.88;;
74191;SDS011;62551;51.180;4.366;2022-08-25T00:45:03;4.70;;;4.00;;
74191;SDS011;62551;51.180;4.366;2022-08-25T00:47:30;6.30;;;4.03;;
74191;SDS011;62551;51.180;4.366;2022-08-25T00:49:58;5.32;;;4.13;;
74191;SDS011;62551;51.180;4.366;2022-08-25T00:52:28;10.75;;;4.68;;
74191;SDS011;62551;51.180;4.366;2022-08-25T00:54:56;6.57;;;4.55;;
74191;SDS011;62551;51.180;4.366;2022-08-25T00:57:25;5.30;;;4.72;;
74191;SDS011;62551;51.180;4.366;2022-08-25T00:59:54;5.63;;;4.90;;
74191;SDS011;62551;51.180;4.366;2022-08-25T01:02:21;6.30;;;4.90;;
74191;SDS011;62551;51.180;4.366;2022-08-25T01:04:48;6.30;;;4.93;;
74191;SDS011;62551;51.180;4.366;2022-08-25T01:07:17;6.53;;;5.00;;
74191;SDS011;62551;51.180;4.366;2022-08-25T01:09:47;6.65;;;4.95;;
74191;SDS011;62551;51.180;4.366;2022-08-25T01:12:16;7.82;;;4.85;;
74191;SDS011;62551;51.180;4.366;2022-08-25T01:14:43;4.95;;;4.45;;
74191;SDS011;62551;51.180;4.366;2022-08-25T01:17:11;5.88;;;5.07;;
74191;SDS011;62551;51.180;4.366;2022-08-25T01:19:38;6.95;;;5.30;;
74191;SDS011;62551;51.180;4.366;2022-08-25T01:22:07;7.63;;;5.68;;
74191;SDS011;62551;51.180;4.366;2022-08-25T01:24:37;6.75;;;5.88;;
74191;SDS011;62551;51.180;4.366;2022-08-25T01:27:05;6.60;;;5.55;;
74191;SDS011;62551;51.180;4.366;2022-08-25T01:29:33;6.20;;;5.53;;
74191;SDS011;62551;51.180;4.366;2022-08-25T01:32:01;7.32;;;5.45;;
74191;SDS011;62551;51.180;4.366;2022-08-25T01:34:30;6.32;;;5.07;;
74191;SDS011;62551;51.180;4.366;2022-08-25T01:36:57;6.40;;;5.63;;
74191;SDS011;62551;51.180;4.366;2022-08-25T01:39:27;7.15;;;5.25;;
74191;SDS011;62551;51.180;4.366;2022-08-25T01:42:08;8.18;;;6.07;;
74191;SDS011;62551;51.180;4.366;2022-08-25T01:44:39;8.00;;;6.03;;
74191;SDS011;62551;51.180;4.366;2022-08-25T01:47:06;7.47;;;5.75;;
74191;SDS011;62551;51.180;4.366;2022-08-25T01:49:34;7.57;;;5.65;;
74191;SDS011;62551;51.180;4.366;2022-08-25T01:52:05;11.90;;;6.47;;
74191;SDS011;62551;51.180;4.366;2022-08-25T01:54:34;7.03;;;5.75;;
74191;SDS011;62551;51.180;4.366;2022-08-25T01:57:01;9.00;;;5.88;;
74191;SDS011;62551;51.180;4.366;2022-08-25T01:59:28;6.45;;;5.45;;
74191;SDS011;62551;51.180;4.366;2022-08-25T02:01:55;6.13;;;5.47;;
74191;SDS011;62551;51.180;4.366;2022-08-25T02:04:23;6.88;;;5.65;;
74191;SDS011;62551;51.180;4.366;2022-08-25T02:06:50;6.45;;;5.47;;
74191;SDS011;62551;51.180;4.366;2022-08-25T02:09:18;8.18;;;6.40;;
74191;SDS011;62551;51.180;4.366;2022-08-25T02:11:46;6.70;;;6.00;;
74191;SDS011;62551;51.180;4.366;2022-08-25T02:14:14;7.38;;;6.30;;
74191;SDS011;62551;51.180;4.366;2022-08-25T02:16:44;7.93;;;6.35;;
74191;SDS011;62551;51.180;4.366;2022-08-25T02:19:13;7.45;;;5.75;;
74191;SDS011;62551;51.180;4.366;2022-08-25T02:21:40;8.50;;;6.68;;
74191;SDS011;62551;51.180;4.366;2022-08-25T02:24:08;7.93;;;6.35;;
74191;SDS011;62551;51.180;4.366;2022-08-25T02:26:36;6.25;;;5.55;;
74191;SDS011;62551;51.180;4.366;2022-08-25T02:29:05;6.82;;;6.13;;
74191;SDS011;62551;51.180;4.366;2022-08-25T02:31:33;9.77;;;6.35;;
74191;SDS011;62551;51.180;4.366;2022-08-25T02:34:00;8.23;;;6.50;;
74191;SDS011;62551;51.180;4.366;2022-08-25T02:36:27;7.97;;;5.80;;
74191;SDS011;62551;51.180;4.366;2022-08-25T02:38:56;7.38;;;6.00;;
74191;SDS011;62551;51.180;4.366;2022-08-25T02:41:25;6.93;;;6.22;;
74191;SDS011;62551;51.180;4.366;2022-08-25T02:43:53;11.93;;;6.70;;
74191;SDS011;62551;51.180;4.366;2022-08-25T02:46:22;7.93;;;6.43;;
74191;SDS011;62551;51.180;4.366;2022-08-25T02:48:49;9.07;;;6.57;;
74191;SDS011;62551;51.180;4.366;2022-08-25T02:51:17;9.43;;;6.50;;
74191;SDS011;62551;51.180;4.366;2022-08-25T02:53:45;8.55;;;6.25;;
74191;SDS011;62551;51.180;4.366;2022-08-25T02:56:13;9.82;;;6.20;;
74191;SDS011;62551;51.180;4.366;2022-08-25T02:58:41;9.95;;;7.10;;
74191;SDS011;62551;51.180;4.366;2022-08-25T03:01:09;7.30;;;6.53;;
74191;SDS011;62551;51.180;4.366;2022-08-25T03:03:38;8.65;;;6.88;;
74191;SDS011;62551;51.180;4.366;2022-08-25T03:06:06;7.97;;;7.18;;
74191;SDS011;62551;51.180;4.366;2022-08-25T03:08:33;12.02;;;7.50;;
74191;SDS011;62551;51.180;4.366;2022-08-25T03:11:01;10.35;;;6.60;;
74191;SDS011;62551;51.180;4.366;2022-08-25T03:13:28;10.02;;;6.55;;
74191;SDS011;62551;51.180;4.366;2022-08-25T03:15:56;10.45;;;6.70;;
74191;SDS011;62551;51.180;4.366;2022-08-25T03:18:24;7.07;;;6.07;;
74191;SDS011;62551;51.180;4.366;2022-08-25T03:20:53;14.13;;;6.43;;
74191;SDS011;62551;51.180;4.366;2022-08-25T03:23:20;7.93;;;6.32;;
74191;SDS011;62551;51.180;4.366;2022-08-25T03:25:47;7.93;;;6.55;;
74191;SDS011;62551;51.180;4.366;2022-08-25T03:28:32;8.00;;;6.13;;
74191;SDS011;62551;51.180;4.366;2022-08-25T03:31:00;8.38;;;6.22;;
74191;SDS011;62551;51.180;4.366;2022-08-25T03:33:28;9.25;;;7.10;;
74191;SDS011;62551;51.180;4.366;2022-08-25T03:35:57;9.55;;;7.25;;
74191;SDS011;62551;51.180;4.366;2022-08-25T03:38:25;8.63;;;6.20;;
74191;SDS011;62551;51.180;4.366;2022-08-25T03:40:52;6.38;;;5.50;;
74191;SDS011;62551;51.180;4.366;2022-08-25T03:43:19;8.35;;;5.90;;
74191;SDS011;62551;51.180;4.366;2022-08-25T03:45:47;6.53;;;5.93;;
74191;SDS011;62551;51.180;4.366;2022-08-25T03:48:14;7.65;;;5.97;;
74191;SDS011;62551;51.180;4.366;2022-08-25T03:50:45;7.90;;;6.10;;
74191;SDS011;62551;51.180;4.366;2022-08-25T03:53:14;8.70;;;6.15;;
74191;SDS011;62551;51.180;4.366;2022-08-25T03:55:41;10.35;;;5.82;;
74191;SDS011;62551;51.180;4.366;2022-08-25T03:58:08;8.63;;;6.65;;
74191;SDS011;62551;51.180;4.366;2022-08-25T04:00:36;7.55;;;6.45;;
74191;SDS011;62551;51.180;4.366;2022-08-25T04:03:03;9.90;;;6.47;;
74191;SDS011;62551;51.180;4.366;2022-08-25T04:05:31;7.38;;;5.72;;
74191;SDS011;62551;51.180;4.366;2022-08-25T04:07:58;6.18;;;5.57;;
74191;SDS011;62551;51.180;4.366;2022-08-25T04:10:28;8.02;;;6.15;;
74191;SDS011;62551;51.180;4.366;2022-08-25T04:12:55;9.70;;;6.53;;
74191;SDS011;62551;51.180;4.366;2022-08-25T04:15:22;7.18;;;6.47;;
74191;SDS011;62551;51.180;4.366;2022-08-25T04:17:50;9.32;;;5.50;;
74191;SDS011;62551;51.180;4.366;2022-08-25T04:20:17;7.60;;;6.20;;
74191;SDS011;62551;51.180;4.366;2022-08-25T04:22:44;8.10;;;5.85;;
74191;SDS011;62551;51.180;4.366;2022-08-25T04:25:12;8.20;;;6.32;;
74191;SDS011;62551;51.180;4.366;2022-08-25T04:27:40;8.63;;;6.13;;
74191;SDS011;62551;51.180;4.366;2022-08-25T04:30:08;6.78;;;6.07;;
74191;SDS011;62551;51.180;4.366;2022-08-25T04:32:35;8.73;;;5.60;;
74191;SDS011;62551;51.180;4.366;2022-08-25T04:35:03;6.60;;;5.80;;
74191;SDS011;62551;51.180;4.366;2022-08-25T04:37:30;8.68;;;6.10;;
74191;SDS011;62551;51.180;4.366;2022-08-25T04:39:58;9.38;;;5.60;;
74191;SDS011;62551;51.180;4.366;2022-08-25T04:42:25;5.85;;;5.28;;
74191;SDS011;62551;51.180;4.366;2022-08-25T04:44:54;8.68;;;5.53;;
74191;SDS011;62551;51.180;4.366;2022-08-25T04:47:21;6.10;;;5.18;;
74191;SDS011;62551;51.180;4.366;2022-08-25T04:49:49;7.55;;;5.32;;
74191;SDS011;62551;51.180;4.366;2022-08-25T04:52:17;8.90;;;5.97;;
74191;SDS011;62551;51.180;4.366;2022-08-25T04:54:45;6.93;;;4.90;;
74191;SDS011;62551;51.180;4.366;2022-08-25T04:57:12;7.25;;;5.35;;
74191;SDS011;62551;51.180;4.366;2022-08-25T04:59:39;6.13;;;4.88;;
74191;SDS011;62551;51.180;4.366;2022-08-25T05:02:08;6.07;;;5.28;;
74191;SDS011;62551;51.180;4.366;2022-08-25T05:04:35;7.22;;;5.63;;
74191;SDS011;62551;51.180;4.366;2022-08-25T05:07:02;6.40;;;5.80;;
74191;SDS011;62551;51.180;4.366;2022-08-25T05:09:30;7.70;;;5.10;;
74191;SDS011;62551;51.180;4.366;2022-08-25T05:11:57;7.13;;;5.00;;
74191;SDS011;62551;51.180;4.366;2022-08-25T05:14:24;6.80;;;5.05;;
74191;SDS011;62551;51.180;4.366;2022-08-25T05:16:51;8.15;;;4.50;;
74191;SDS011;62551;51.180;4.366;2022-08-25T05:19:20;6.43;;;5.10;;
74191;SDS011;62551;51.180;4.366;2022-08-25T05:21:47;8.85;;;5.45;;
74191;SDS011;62551;51.180;4.366;2022-08-25T05:24:15;6.00;;;4.53;;
74191;SDS011;62551;51.180;4.366;2022-08-25T05:26:42;6.60;;;5.28;;
74191;SDS011;62551;51.180;4.366;2022-08-25T05:29:10;8.93;;;5.35;;
74191;SDS011;62551;51.180;4.366;2022-08-25T05:31:37;9.10;;;4.75;;
74191;SDS011;62551;51.180;4.366;2022-08-25T05:34:04;6.25;;;5.00;;
74191;SDS011;62551;51.180;4.366;2022-08-25T05:36:33;5.75;;;4.70;;
74191;SDS011;62551;51.180;4.366;2022-08-25T05:39:01;6.50;;;4.55;;
74191;SDS011;62551;51.180;4.366;2022-08-25T05:41:29;6.90;;;4.65;;
74191;SDS011;62551;51.180;4.366;2022-08-25T05:43:56;8.38;;;4.63;;
74191;SDS011;62551;51.180;4.366;2022-08-25T05:46:23;6.53;;;4.53;;
74191;SDS011;62551;51.180;4.366;2022-08-25T05:48:51;9.43;;;5.22;;
74191;SDS011;62551;51.180;4.366;2022-08-25T05:51:18;5.35;;;4.68;;
74191;SDS011;62551;51.180;4.366;2022-08-25T05:53:47;6.63;;;5.13;;
74191;SDS011;62551;51.180;4.366;2022-08-25T05:56:15;6.88;;;4.75;;
74191;SDS011;62551;51.180;4.366;2022-08-25T05:58:43;6.80;;;4.90;;
74191;SDS011;62551;51.180;4.366;2022-08-25T06:01:17;6.25;;;4.60;;
74191;SDS011;62551;51.180;4.366;2022-08-25T06:04:02;7.75;;;5.07;;
74191;SDS011;62551;51.180;4.366;2022-08-25T06:06:30;7.63;;;4.68;;
74191;SDS011;62551;51.180;4.366;2022-08-25T06:09:00;6.85;;;4.15;;
74191;SDS011;62551;51.180;4.366;2022-08-25T06:11:29;7.47;;;4.25;;
74191;SDS011;62551;51.180;4.366;2022-08-25T06:13:56;8.38;;;4.50;;
74191;SDS011;62551;51.180;4.366;2022-08-25T06:16:23;9.55;;;4.68;;
74191;SDS011;62551;51.180;4.366;2022-08-25T06:18:50;9.55;;;4.55;;
74191;SDS011;62551;51.180;4.366;2022-08-25T06:21:19;9.43;;;4.38;;
74191;SDS011;62551;51.180;4.366;2022-08-25T06:23:46;7.72;;;3.97;;
74191;SDS011;62551;51.180;4.366;2022-08-25T06:26:15;6.05;;;4.78;;
74191;SDS011;62551;51.180;4.366;2022-08-25T06:28:43;5.60;;;4.15;;
74191;SDS011;62551;51.180;4.366;2022-08-25T06:31:10;8.50;;;4.40;;
74191;SDS011;62551;51.180;4.366;2022-08-25T06:33:37;6.47;;;4.63;;
74191;SDS011;62551;51.180;4.366;2022-08-25T06:36:05;9.25;;;5.07;;
74191;SDS011;62551;51.180;4.366;2022-08-25T06:38:32;7.93;;;4.00;;
74191;SDS011;62551;51.180;4.366;2022-08-25T06:41:00;10.40;;;4.63;;
74191;SDS011;62551;51.180;4.366;2022-08-25T06:43:29;11.35;;;4.00;;
74191;SDS011;62551;51.180;4.366;2022-08-25T06:45:57;6.47;;;4.10;;
74191;SDS011;62551;51.180;4.366;2022-08-25T06:48:24;6.32;;;3.85;;
74191;SDS011;62551;51.180;4.366;2022-08-25T06:50:51;5.85;;;4.70;;
74191;SDS011;62551;51.180;4.366;2022-08-25T06:53:18;6.05;;;3.95;;
74191;SDS011;62551;51.180;4.366;2022-08-25T06:55:54;6.82;;;3.97;;
74191;SDS011;62551;51.180;4.366;2022-08-25T06:58:21;5.00;;;3.90;;
74191;SDS011;62551;51.180;4.366;2022-08-25T07:00:50;7.60;;;4.10;;
74191;SDS011;62551;51.180;4.366;2022-08-25T07:03:17;9.05;;;4.07;;
74191;SDS011;62551;51.180;4.366;2022-08-25T07:05:49;11.32;;;4.43;;
74191;SDS011;62551;51.180;4.366;2022-08-25T07:08:16;5.53;;;3.75;;
74191;SDS011;62551;51.180;4.366;2022-08-25T07:10:44;6.25;;;3.67;;
74191;SDS011;62551;51.180;4.366;2022-08-25T07:13:11;7.93;;;4.13;;
74191;SDS011;62551;51.180;4.366;2022-08-25T07:15:42;4.70;;;3.53;;
74191;SDS011;62551;51.180;4.366;2022-08-25T07:18:10;6.63;;;3.72;;
74191;SDS011;62551;51.180;4.366;2022-08-25T07:20:39;6.25;;;3.65;;
74191;SDS011;62551;51.180;4.366;2022-08-25T07:23:06;7.60;;;3.45;;
74191;SDS011;62551;51.180;4.366;2022-08-25T07:25:34;6.60;;;3.58;;
74191;SDS011;62551;51.180;4.366;2022-08-25T07:28:01;7.60;;;3.72;;
74191;SDS011;62551;51.180;4.366;2022-08-25T07:30:29;10.77;;;3.55;;
74191;SDS011;62551;51.180;4.366;2022-08-25T07:32:58;4.95;;;3.65;;
74191;SDS011;62551;51.180;4.366;2022-08-25T07:35:27;6.30;;;3.40;;
74191;SDS011;62551;51.180;4.366;2022-08-25T07:37:57;7.80;;;3.60;;
74191;SDS011;62551;51.180;4.366;2022-08-25T07:40:26;7.65;;;3.90;;
74191;SDS011;62551;51.180;4.366;2022-08-25T07:42:54;4.47;;;3.38;;
74191;SDS011;62551;51.180;4.366;2022-08-25T07:45:23;6.82;;;3.10;;
74191;SDS011;62551;51.180;4.366;2022-08-25T07:47:54;7.18;;;3.80;;
74191;SDS011;62551;51.180;4.366;2022-08-25T07:50:21;7.20;;;3.95;;
74191;SDS011;62551;51.180;4.366;2022-08-25T07:52:50;10.18;;;4.03;;
74191;SDS011;62551;51.180;4.366;2022-08-25T07:55:17;5.68;;;3.70;;
74191;SDS011;62551;51.180;4.366;2022-08-25T07:57:45;4.80;;;3.38;;
74191;SDS011;62551;51.180;4.366;2022-08-25T08:00:13;5.50;;;3.20;;
74191;SDS011;62551;51.180;4.366;2022-08-25T08:02:40;7.75;;;3.63;;
74191;SDS011;62551;51.180;4.366;2022-08-25T08:05:08;8.32;;;3.63;;
74191;SDS011;62551;51.180;4.366;2022-08-25T08:07:36;7.25;;;3.20;;
74191;SDS011;62551;51.180;4.366;2022-08-25T08:10:06;4.10;;;3.40;;
74191;SDS011;62551;51.180;4.366;2022-08-25T08:12:34;4.88;;;3.08;;
74191;SDS011;62551;51.180;4.366;2022-08-25T08:15:01;7.28;;;3.40;;
74191;SDS011;62551;51.180;4.366;2022-08-25T08:17:29;4.68;;;3.35;;
74191;SDS011;62551;51.180;4.366;2022-08-25T08:19:56;6.63;;;3.25;;
74191;SDS011;62551;51.180;4.366;2022-08-25T08:22:23;5.68;;;3.53;;
74191;SDS011;62551;51.180;4.366;2022-08-25T08:24:51;7.45;;;3.63;;
74191;SDS011;62551;51.180;4.366;2022-08-25T08:27:19;8.82;;;3.33;;
74191;SDS011;62551;51.180;4.366;2022-08-25T08:29:47;6.35;;;3.63;;
74191;SDS011;62551;51.180;4.366;2022-08-25T08:32:14;6.45;;;3.20;;
74191;SDS011;62551;51.180;4.366;2022-08-25T08:34:42;6.93;;;3.30;;
74191;SDS011;62551;51.180;4.366;2022-08-25T08:37:10;7.97;;;3.33;;
74191;SDS011;62551;51.180;4.366;2022-08-25T08:39:37;5.22;;;3.13;;
74191;SDS011;62551;51.180;4.366;2022-08-25T08:42:07;5.93;;;2.80;;
74191;SDS011;62551;51.180;4.366;2022-08-25T08:45:03;6.20;;;3.15;;
74191;SDS011;62551;51.180;4.366;2022-08-25T08:47:36;5.25;;;2.80;;
74191;SDS011;62551;51.180;4.366;2022-08-25T08:50:09;6.22;;;3.20;;
74191;SDS011;62551;51.180;4.366;2022-08-25T08:52:41;10.10;;;3.42;;
74191;SDS011;62551;51.180;4.366;2022-08-25T08:55:10;6.35;;;3.38;;
74191;SDS011;62551;51.180;4.366;2022-08-25T08:57:42;6.57;;;3.45;;
74191;SDS011;62551;51.180;4.366;2022-08-25T09:00:12;4.57;;;3.00;;
74191;SDS011;62551;51.180;4.366;2022-08-25T09:02:41;7.90;;;4.28;;
74191;SDS011;62551;51.180;4.366;2022-08-25T09:05:12;4.45;;;2.80;;
74191;SDS011;62551;51.180;4.366;2022-08-25T09:07:42;5.38;;;3.40;;
74191;SDS011;62551;51.180;4.366;2022-08-25T09:10:11;5.15;;;2.90;;
74191;SDS011;62551;51.180;4.366;2022-08-25T09:12:39;4.10;;;3.15;;
74191;SDS011;62551;51.180;4.366;2022-08-25T09:15:12;6.68;;;2.75;;
74191;SDS011;62551;51.180;4.366;2022-08-25T09:17:49;5.10;;;2.97;;
74191;SDS011;62551;51.180;4.366;2022-08-25T09:20:31;6.97;;;2.70;;
74191;SDS011;62551;51.180;4.366;2022-08-25T09:23:02;6.70;;;2.95;;
74191;SDS011;62551;51.180;4.366;2022-08-25T09:25:36;6.82;;;3.28;;
74191;SDS011;62551;51.180;4.366;2022-08-25T09:28:07;6.93;;;2.90;;
74191;SDS011;62551;51.180;4.366;2022-08-25T09:30:39;7.22;;;2.70;;
74191;SDS011;62551;51.180;4.366;2022-08-25T09:33:09;4.10;;;2.55;;
74191;SDS011;62551;51.180;4.366;2022-08-25T09:35:38;6.90;;;2.58;;
74191;SDS011;62551;51.180;4.366;2022-08-25T09:38:08;6.82;;;2.90;;
74191;SDS011;62551;51.180;4.366;2022-08-25T09:40:38;5.10;;;3.03;;
74191;SDS011;62551;51.180;4.366;2022-08-25T09:43:08;5.13;;;2.70;;
74191;SDS011;62551;51.180;4.366;2022-08-25T09:45:45;6.30;;;3.08;;
74191;SDS011;62551;51.180;4.366;2022-08-25T09:48:20;7.30;;;2.80;;
74191;SDS011;62551;51.180;4.366;2022-08-25T09:50:48;7.35;;;2.55;;
74191;SDS011;62551;51.180;4.366;2022-08-25T09:53:16;2.78;;;2.40;;
74191;SDS011;62551;51.180;4.366;2022-08-25T09:55:43;7.57;;;3.15;;
74191;SDS011;62551;51.180;4.366;2022-08-25T09:58:14;4.18;;;2.50;;
74191;SDS011;62551;51.180;4.366;2022-08-25T10:00:42;4.07;;;2.63;;
74191;SDS011;62551;51.180;4.366;2022-08-25T10:03:11;8.02;;;2.53;;
74191;SDS011;62551;51.180;4.366;2022-08-25T10:05:46;4.05;;;2.20;;
74191;SDS011;62551;51.180;4.366;2022-08-25T10:08:21;4.57;;;2.65;;
74191;SDS011;62551;51.180;4.366;2022-08-25T10:10:54;7.45;;;2.70;;
74191;SDS011;62551;51.180;4.366;2022-08-25T10:13:31;5.35;;;2.70;;
74191;SDS011;62551;51.180;4.366;2022-08-25T10:16:02;4.85;;;2.53;;
74191;SDS011;62551;51.180;4.366;2022-08-25T10:18:29;8.50;;;3.10;;
74191;SDS011;62551;51.180;4.366;2022-08-25T10:21:02;5.25;;;2.70;;
74191;SDS011;62551;51.180;4.366;2022-08-25T10:23:29;3.85;;;2.58;;
74191;SDS011;62551;51.180;4.366;2022-08-25T10:25:59;5.40;;;2.60;;
74191;SDS011;62551;51.180;4.366;2022-08-25T10:28:31;5.47;;;2.70;;
74191;SDS011;62551;51.180;4.366;2022-08-25T10:31:01;5.93;;;2.60;;
74191;SDS011;62551;51.180;4.366;2022-08-25T10:33:32;4.18;;;2.42;;
74191;SDS011;62551;51.180;4.366;2022-08-25T10:36:03;3.10;;;2.10;;
74191;SDS011;62551;51.180;4.366;2022-08-25T10:38:37;4.13;;;2.30;;
74191;SDS011;62551;51.180;4.366;2022-08-25T10:41:11;4.35;;;2.58;;
74191;SDS011;62551;51.180;4.366;2022-08-25T10:43:42;5.78;;;2.83;;
74191;SDS011;62551;51.180;4.366;2022-08-25T10:46:12;2.85;;;2.40;;
74191;SDS011;62551;51.180;4.366;2022-08-25T10:48:43;6.45;;;3.03;;
74191;SDS011;62551;51.180;4.366;2022-08-25T10:54:09;2.30;;;1.70;;
74191;SDS011;62551;51.180;4.366;2022-08-25T10:56:39;4.47;;;2.40;;
74191;SDS011;62551;51.180;4.366;2022-08-25T10:59:10;4.40;;;2.58;;
74191;SDS011;62551;51.180;4.366;2022-08-25T11:01:43;5.50;;;2.30;;
74191;SDS011;62551;51.180;4.366;2022-08-25T11:04:13;3.58;;;2.50;;
74191;SDS011;62551;51.180;4.366;2022-08-25T11:06:42;6.95;;;2.80;;
74191;SDS011;62551;51.180;4.366;2022-08-25T11:09:13;5.38;;;2.22;;
74191;SDS011;62551;51.180;4.366;2022-08-25T11:11:44;6.90;;;2.40;;
74191;SDS011;62551;51.180;4.366;2022-08-25T11:14:14;8.77;;;2.20;;
74191;SDS011;62551;51.180;4.366;2022-08-25T11:16:46;5.43;;;2.78;;
74191;SDS011;62551;51.180;4.366;2022-08-25T11:19:18;9.02;;;3.35;;
74191;SDS011;62551;51.180;4.366;2022-08-25T11:21:48;4.35;;;2.50;;
74191;SDS011;62551;51.180;4.366;2022-08-25T11:24:34;4.32;;;2.15;;
74191;SDS011;62551;51.180;4.366;2022-08-25T11:27:04;5.05;;;2.58;;
74191;SDS011;62551;51.180;4.366;2022-08-25T11:29:32;11.10;;;4.18;;
74191;SDS011;62551;51.180;4.366;2022-08-25T11:32:01;12.18;;;4.90;;
74191;SDS011;62551;51.180;4.366;2022-08-25T11:34:30;9.13;;;3.03;;
74191;SDS011;62551;51.180;4.366;2022-08-25T11:36:58;13.98;;;4.57;;
74191;SDS011;62551;51.180;4.366;2022-08-25T11:39:54;17.50;;;5.25;;
74191;SDS011;62551;51.180;4.366;2022-08-25T11:42:27;9.73;;;4.53;;
74191;SDS011;62551;51.180;4.366;2022-08-25T11:44:57;10.27;;;2.92;;
74191;SDS011;62551;51.180;4.366;2022-08-25T11:47:33;11.10;;;3.80;;
74191;SDS011;62551;51.180;4.366;2022-08-25T11:52:39;7.25;;;2.67;;
74191;SDS011;62551;51.180;4.366;2022-08-25T11:55:11;2.88;;;1.73;;
74191;SDS011;62551;51.180;4.366;2022-08-25T11:57:39;5.57;;;2.25;;
74191;SDS011;62551;51.180;4.366;2022-08-25T12:00:09;4.20;;;1.80;;
74191;SDS011;62551;51.180;4.366;2022-08-25T12:02:39;4.15;;;2.00;;
74191;SDS011;62551;51.180;4.366;2022-08-25T12:05:08;3.78;;;2.20;;
74191;SDS011;62551;51.180;4.366;2022-08-25T12:10:56;7.20;;;2.92;;
74191;SDS011;62551;51.180;4.366;2022-08-25T12:18:58;4.32;;;2.20;;
74191;SDS011;62551;51.180;4.366;2022-08-25T12:21:43;5.47;;;2.60;;
74191;SDS011;62551;51.180;4.366;2022-08-25T12:24:12;3.50;;;2.00;;
74191;SDS011;62551;51.180;4.366;2022-08-25T12:26:44;7.53;;;2.45;;
74191;SDS011;62551;51.180;4.366;2022-08-25T12:29:15;5.82;;;2.45;;
74191;SDS011;62551;51.180;4.366;2022-08-25T12:31:51;3.20;;;2.40;;
74191;SDS011;62551;51.180;4.366;2022-08-25T12:34:33;5.03;;;2.10;;
74191;SDS011;62551;51.180;4.366;2022-08-25T12:37:04;3.65;;;2.17;;
74191;SDS011;62551;51.180;4.366;2022-08-25T12:39:42;3.35;;;2.10;;
74191;SDS011;62551;51.180;4.366;2022-08-25T12:42:17;2.97;;;2.20;;
74191;SDS011;62551;51.180;4.366;2022-08-25T12:44:48;4.90;;;2.22;;
74191;SDS011;62551;51.180;4.366;2022-08-25T12:47:33;4.63;;;2.17;;
74191;SDS011;62551;51.180;4.366;2022-08-25T12:52:44;3.53;;;2.10;;
74191;SDS011;62551;51.180;4.366;2022-08-25T12:55:11;3.75;;;2.15;;
74191;SDS011;62551;51.180;4.366;2022-08-25T12:57:40;5.28;;;2.28;;
74191;SDS011;62551;51.180;4.366;2022-08-25T13:00:13;4.43;;;2.47;;
74191;SDS011;62551;51.180;4.366;2022-08-25T13:05:57;3.17;;;2.20;;
74191;SDS011;62551;51.180;4.366;2022-08-25T13:08:35;3.10;;;2.10;;
74191;SDS011;62551;51.180;4.366;2022-08-25T13:11:08;7.10;;;2.40;;
74191;SDS011;62551;51.180;4.366;2022-08-25T13:13:39;9.55;;;4.28;;
74191;SDS011;62551;51.180;4.366;2022-08-25T13:16:14;6.43;;;3.90;;
74191;SDS011;62551;51.180;4.366;2022-08-25T13:21:12;6.53;;;4.38;;
74191;SDS011;62551;51.180;4.366;2022-08-25T13:23:43;8.32;;;4.60;;
74191;SDS011;62551;51.180;4.366;2022-08-25T13:26:11;6.63;;;4.32;;
74191;SDS011;62551;51.180;4.366;2022-08-25T13:28:40;8.45;;;4.10;;
74191;SDS011;62551;51.180;4.366;2022-08-25T13:31:08;10.07;;;4.65;;
74191;SDS011;62551;51.180;4.366;2022-08-25T13:33:48;9.35;;;4.88;;
74191;SDS011;62551;51.180;4.366;2022-08-25T13:36:15;10.77;;;4.65;;
74191;SDS011;62551;51.180;4.366;2022-08-25T13:39:10;9.25;;;4.60;;
74191;SDS011;62551;51.180;4.366;2022-08-25T13:41:38;11.95;;;5.18;;
74191;SDS011;62551;51.180;4.366;2022-08-25T13:44:10;9.18;;;4.88;;
74191;SDS011;62551;51.180;4.366;2022-08-25T13:46:37;6.45;;;4.25;;
74191;SDS011;62551;51.180;4.366;2022-08-25T13:49:05;10.02;;;4.20;;
74191;SDS011;62551;51.180;4.366;2022-08-25T13:51:32;10.88;;;4.50;;
74191;SDS011;62551;51.180;4.366;2022-08-25T13:54:00;11.13;;;5.20;;
74191;SDS011;62551;51.180;4.366;2022-08-25T13:56:32;9.20;;;4.63;;
74191;SDS011;62551;51.180;4.366;2022-08-25T13:59:00;7.03;;;4.93;;
74191;SDS011;62551;51.180;4.366;2022-08-25T14:01:29;11.25;;;5.43;;
74191;SDS011;62551;51.180;4.366;2022-08-25T14:03:57;7.82;;;5.40;;
74191;SDS011;62551;51.180;4.366;2022-08-25T14:06:44;12.70;;;5.50;;
74191;SDS011;62551;51.180;4.366;2022-08-25T14:09:12;11.38;;;5.50;;
74191;SDS011;62551;51.180;4.366;2022-08-25T14:11:43;6.13;;;5.32;;
74191;SDS011;62551;51.180;4.366;2022-08-25T14:14:11;10.10;;;5.97;;
74191;SDS011;62551;51.180;4.366;2022-08-25T14:16:39;12.25;;;6.72;;
74191;SDS011;62551;51.180;4.366;2022-08-25T14:19:12;8.68;;;5.60;;
74191;SDS011;62551;51.180;4.366;2022-08-25T14:21:40;10.25;;;6.03;;
74191;SDS011;62551;51.180;4.366;2022-08-25T14:24:07;13.23;;;5.75;;
74191;SDS011;62551;51.180;4.366;2022-08-25T14:26:34;9.07;;;6.57;;
74191;SDS011;62551;51.180;4.366;2022-08-25T14:29:03;8.40;;;6.22;;
74191;SDS011;62551;51.180;4.366;2022-08-25T14:31:31;7.70;;;5.07;;
74191;SDS011;62551;51.180;4.366;2022-08-25T14:34:00;8.70;;;7.03;;
74191;SDS011;62551;51.180;4.366;2022-08-25T14:36:29;11.70;;;7.82;;
74191;SDS011;62551;51.180;4.366;2022-08-25T14:38:56;10.95;;;8.63;;
74191;SDS011;62551;51.180;4.366;2022-08-25T14:41:24;11.00;;;8.45;;
74191;SDS011;62551;51.180;4.366;2022-08-25T14:43:52;10.77;;;8.10;;
74191;SDS011;62551;51.180;4.366;2022-08-25T14:46:21;11.90;;;7.50;;
74191;SDS011;62551;51.180;4.366;2022-08-25T14:48:49;10.80;;;8.13;;
74191;SDS011;62551;51.180;4.366;2022-08-25T14:51:18;13.82;;;8.18;;
74191;SDS011;62551;51.180;4.366;2022-08-25T14:53:46;16.55;;;9.25;;
74191;SDS011;62551;51.180;4.366;2022-08-25T14:56:13;12.23;;;9.32;;
74191;SDS011;62551;51.180;4.366;2022-08-25T14:58:40;13.95;;;7.85;;
74191;SDS011;62551;51.180;4.366;2022-08-25T15:01:09;14.48;;;7.97;;
74191;SDS011;62551;51.180;4.366;2022-08-25T15:03:39;10.98;;;7.75;;
74191;SDS011;62551;51.180;4.366;2022-08-25T15:06:07;17.25;;;8.10;;
74191;SDS011;62551;51.180;4.366;2022-08-25T15:08:36;13.52;;;8.98;;
74191;SDS011;62551;51.180;4.366;2022-08-25T15:11:21;11.75;;;8.57;;
74191;SDS011;62551;51.180;4.366;2022-08-25T15:13:48;10.18;;;7.10;;
74191;SDS011;62551;51.180;4.366;2022-08-25T15:16:23;9.32;;;7.70;;
74191;SDS011;62551;51.180;4.366;2022-08-25T15:18:52;12.93;;;8.77;;
74191;SDS011;62551;51.180;4.366;2022-08-25T15:21:20;10.82;;;9.55;;